createdAt,value
2023-03-22T00:01:21.986Z,6.50
2023-03-22T00:03:50.729Z,7.15
2023-03-22T00:06:18.064Z,6.38
2023-03-22T00:08:45.895Z,6.57
2023-03-22T00:11:13.193Z,6.68
2023-03-22T00:13:43.065Z,6.28
2023-03-22T00:16:11.215Z,7.05
2023-03-22T00:18:39.830Z,6.60
2023-03-22T00:21:16.072Z,6.60
2023-03-22T00:23:43.622Z,6.72
2023-03-22T00:26:12.479Z,6.30
2023-03-22T00:28:39.816Z,6.00
2023-03-22T00:31:07.162Z,6.57
2023-03-22T00:33:34.237Z,6.07
2023-03-22T00:36:07.333Z,6.40
2023-03-22T00:38:42.432Z,6.82
2023-03-22T00:41:16.456Z,6.53
2023-03-22T00:43:46.148Z,7.80
2023-03-22T00:46:14.592Z,7.55
2023-03-22T00:48:41.785Z,7.00
2023-03-22T00:51:10.127Z,7.45
2023-03-22T00:53:41.846Z,7.32
2023-03-22T00:56:14.335Z,9.00
2023-03-22T00:59:17.052Z,7.85
2023-03-22T01:01:44.285Z,7.30
2023-03-22T01:04:18.105Z,6.80
2023-03-22T01:06:47.392Z,6.90
2023-03-22T01:09:15.399Z,6.95
2023-03-22T01:11:43.890Z,7.57
2023-03-22T01:14:14.046Z,7.18
2023-03-22T01:16:41.235Z,5.95
2023-03-22T01:19:08.814Z,7.38
2023-03-22T01:21:36.565Z,6.93
2023-03-22T01:24:03.754Z,6.70
2023-03-22T01:26:31.363Z,6.40
2023-03-22T01:28:58.511Z,7.45
2023-03-22T01:31:25.799Z,8.02
2023-03-22T01:33:52.747Z,7.22
2023-03-22T01:36:22.193Z,7.38
2023-03-22T01:38:49.142Z,7.22
2023-03-22T01:41:17.476Z,7.90
2023-03-22T01:43:45.478Z,7.63
2023-03-22T01:46:13.197Z,8.02
2023-03-22T01:48:46.311Z,7.68
2023-03-22T01:51:27.799Z,7.65
2023-03-22T01:54:10.897Z,7.95
2023-03-22T01:56:42.678Z,7.80
2023-03-22T01:59:16.264Z,8.38
2023-03-22T02:02:03.753Z,7.65
2023-03-22T02:04:36.880Z,8.30
2023-03-22T02:07:10.236Z,7.70
2023-03-22T02:09:42.449Z,7.25
2023-03-22T02:12:34.380Z,8.10
2023-03-22T02:15:17.043Z,7.03
2023-03-22T02:19:01.378Z,8.80
2023-03-22T02:22:26.066Z,9.80
2023-03-22T02:25:20.816Z,11.35
2023-03-22T02:28:15.857Z,8.77
2023-03-22T02:30:42.716Z,8.15
2023-03-22T02:33:32.021Z,7.40
2023-03-22T02:36:19.162Z,8.27
2023-03-22T02:39:12.169Z,7.80
2023-03-22T02:42:25.747Z,7.93
2023-03-22T02:45:06.468Z,7.60
2023-03-22T02:47:58.855Z,9.40
2023-03-22T02:50:50.637Z,7.88
2023-03-22T02:53:26.468Z,8.50
2023-03-22T02:56:05.923Z,8.15
2023-03-22T02:58:45.747Z,8.73
2023-03-22T03:01:23.808Z,8.68
2023-03-22T03:03:55.416Z,7.65
2023-03-22T03:06:25.920Z,8.48
2023-03-22T03:08:54.701Z,9.07
2023-03-22T03:11:21.685Z,7.85
2023-03-22T03:13:51.218Z,9.05
2023-03-22T03:16:21.877Z,9.50
2023-03-22T03:19:00.839Z,8.73
2023-03-22T03:21:51.970Z,9.15
2023-03-22T03:24:34.871Z,8.73
2023-03-22T03:27:10.069Z,9.57
2023-03-22T03:30:16.911Z,9.27
2023-03-22T03:32:59.395Z,10.60
2023-03-22T03:35:32.638Z,9.97
2023-03-22T03:38:08.868Z,10.27
2023-03-22T03:40:44.385Z,9.95
2023-03-22T03:43:12.501Z,12.60
2023-03-22T03:45:40.574Z,12.00
2023-03-22T03:48:23.860Z,11.45
2023-03-22T03:50:53.572Z,12.10
2023-03-22T03:53:20.766Z,12.20
2023-03-22T03:55:47.715Z,13.82
2023-03-22T03:58:18.100Z,13.13
2023-03-22T04:00:47.932Z,16.10
2023-03-22T04:03:21.000Z,15.43
2023-03-22T04:06:14.036Z,16.63
2023-03-22T04:08:45.997Z,16.92
2023-03-22T04:11:15.854Z,18.17
2023-03-22T04:13:44.674Z,17.75
2023-03-22T04:16:16.555Z,17.90
2023-03-22T04:18:43.567Z,17.95
2023-03-22T04:21:12.278Z,17.33
2023-03-22T04:24:00.300Z,16.23
2023-03-22T04:26:30.038Z,16.88
2023-03-22T04:29:15.327Z,17.55
2023-03-22T04:31:47.178Z,18.60
2023-03-22T04:34:19.744Z,17.08
2023-03-22T04:37:02.649Z,16.88
2023-03-22T04:39:34.851Z,17.80
2023-03-22T04:42:25.668Z,16.75
2023-03-22T04:45:04.265Z,16.08
2023-03-22T04:47:32.212Z,18.10
2023-03-22T04:50:00.308Z,16.90
2023-03-22T04:52:30.584Z,17.05
2023-03-22T04:54:57.566Z,17.92
2023-03-22T04:57:24.880Z,16.85
2023-03-22T04:59:52.485Z,17.10
2023-03-22T05:02:19.823Z,17.33
2023-03-22T05:04:48.354Z,16.48
2023-03-22T05:07:28.715Z,17.95
2023-03-22T05:09:58.640Z,17.50
2023-03-22T05:12:25.862Z,17.85
2023-03-22T05:15:06.854Z,17.88
2023-03-22T05:17:37.698Z,17.77
2023-03-22T05:20:10.392Z,18.85
2023-03-22T05:25:11.362Z,17.75
2023-03-22T05:27:43.641Z,17.45
2023-03-22T05:30:34.113Z,17.30
2023-03-22T05:33:08.155Z,17.77
2023-03-22T05:35:41.939Z,18.58
2023-03-22T05:38:10.810Z,18.88
2023-03-22T05:40:42.127Z,17.77
2023-03-22T05:43:09.072Z,18.15
2023-03-22T05:45:37.554Z,19.40
2023-03-22T05:48:12.740Z,18.02
2023-03-22T05:50:40.995Z,18.27
2023-03-22T05:53:08.730Z,17.67
2023-03-22T05:55:50.237Z,17.35
2023-03-22T05:58:19.298Z,16.98
2023-03-22T06:00:51.566Z,17.70
2023-03-22T06:03:18.573Z,18.70
2023-03-22T06:05:54.950Z,16.15
2023-03-22T06:08:35.644Z,17.60
2023-03-22T06:11:02.905Z,16.52
2023-03-22T06:13:30.108Z,16.38
2023-03-22T06:16:01.502Z,14.98
2023-03-22T06:18:29.694Z,15.10
2023-03-22T06:21:03.148Z,15.07
2023-03-22T06:23:30.325Z,14.15
2023-03-22T06:25:57.270Z,13.88
2023-03-22T06:28:26.668Z,13.45
2023-03-22T06:30:54.885Z,12.45
2023-03-22T06:33:31.612Z,13.10
2023-03-22T06:36:09.361Z,13.65
2023-03-22T06:38:46.379Z,12.90
2023-03-22T06:41:13.493Z,14.65
2023-03-22T06:43:40.471Z,13.13
2023-03-22T06:46:22.091Z,13.93
2023-03-22T06:48:58.214Z,13.73
2023-03-22T06:51:25.488Z,13.15
2023-03-22T06:53:53.326Z,13.10
2023-03-22T06:56:20.689Z,13.40
2023-03-22T06:58:52.074Z,14.30
2023-03-22T07:01:19.626Z,13.43
2023-03-22T07:03:46.800Z,13.57
2023-03-22T07:06:16.097Z,13.43
2023-03-22T07:08:46.832Z,13.02
2023-03-22T07:11:17.962Z,12.85
2023-03-22T07:13:55.829Z,12.45
2023-03-22T07:16:23.157Z,11.88
2023-03-22T07:18:53.399Z,11.95
2023-03-22T07:21:20.314Z,11.50
2023-03-22T07:23:52.077Z,12.43
2023-03-22T07:26:21.686Z,12.63
2023-03-22T07:28:50.030Z,12.60
2023-03-22T07:31:18.388Z,11.98
2023-03-22T07:34:00.995Z,11.65
2023-03-22T07:36:31.139Z,12.60
2023-03-22T07:38:58.332Z,11.93
2023-03-22T07:41:30.763Z,12.07
2023-03-22T07:44:30.145Z,12.10
2023-03-22T07:47:15.721Z,12.02
2023-03-22T07:49:56.756Z,12.18
2023-03-22T07:52:27.163Z,13.27
2023-03-22T07:54:54.228Z,12.43
2023-03-22T07:57:21.099Z,12.27
2023-03-22T07:59:54.518Z,12.38
2023-03-22T08:02:23.827Z,12.07
2023-03-22T08:04:56.494Z,11.98
2023-03-22T08:07:51.542Z,12.40
2023-03-22T08:10:18.593Z,12.32
2023-03-22T08:12:45.575Z,12.45
2023-03-22T08:15:20.796Z,10.68
2023-03-22T08:17:49.945Z,11.20
2023-03-22T08:20:28.744Z,10.85
2023-03-22T08:23:01.153Z,10.40
2023-03-22T08:26:03.330Z,9.32
2023-03-22T08:28:32.286Z,9.05
2023-03-22T08:30:59.465Z,9.18
2023-03-22T08:33:26.578Z,8.57
2023-03-22T08:36:04.814Z,8.27
2023-03-22T08:38:32.478Z,7.55
2023-03-22T08:40:59.482Z,6.93
2023-03-22T08:43:26.490Z,7.35
2023-03-22T08:45:53.953Z,6.85
2023-03-22T08:48:21.263Z,7.30
2023-03-22T08:51:03.131Z,6.53
2023-03-22T08:53:40.510Z,7.75
2023-03-22T08:56:27.450Z,7.13
2023-03-22T08:59:09.935Z,6.75
2023-03-22T09:01:51.988Z,6.70
2023-03-22T09:04:19.425Z,5.35
2023-03-22T09:06:47.115Z,6.05
2023-03-22T09:09:15.245Z,5.82
2023-03-22T09:11:44.906Z,8.00
2023-03-22T09:14:11.956Z,6.07
2023-03-22T09:16:39.067Z,5.38
2023-03-22T09:19:06.833Z,5.78
2023-03-22T09:21:34.579Z,5.80
2023-03-22T09:24:14.219Z,5.60
2023-03-22T09:26:47.521Z,5.90
2023-03-22T09:29:17.629Z,5.13
2023-03-22T09:31:48.896Z,5.57
2023-03-22T09:34:22.886Z,5.28
2023-03-22T09:36:49.920Z,5.30
2023-03-22T09:39:20.243Z,5.50
2023-03-22T09:41:58.275Z,6.30
2023-03-22T09:44:40.357Z,5.82
2023-03-22T09:47:33.190Z,5.18
2023-03-22T09:50:16.043Z,7.63
2023-03-22T09:55:37.479Z,8.02
2023-03-22T09:58:21.353Z,9.68
2023-03-22T10:00:58.473Z,10.38
2023-03-22T10:03:53.131Z,10.30
2023-03-22T10:06:25.578Z,11.60
2023-03-22T10:09:16.885Z,11.95
2023-03-22T10:11:52.541Z,12.20
2023-03-22T10:14:41.485Z,11.02
2023-03-22T10:17:18.677Z,10.88
2023-03-22T10:20:08.779Z,11.25
2023-03-22T10:22:41.034Z,11.05
2023-03-22T10:25:09.651Z,10.52
2023-03-22T10:27:37.660Z,8.82
2023-03-22T10:30:19.897Z,9.73
2023-03-22T10:32:58.163Z,7.97
2023-03-22T10:35:26.245Z,7.20
2023-03-22T10:37:56.565Z,6.65
2023-03-22T10:40:29.886Z,9.98
2023-03-22T10:43:01.933Z,10.00
2023-03-22T10:45:32.096Z,9.95
2023-03-22T10:48:11.905Z,9.20
2023-03-22T10:50:42.323Z,7.68
2023-03-22T10:53:23.201Z,8.35
2023-03-22T10:55:50.443Z,7.10
2023-03-22T10:58:19.971Z,6.72
2023-03-22T11:00:52.304Z,7.25
2023-03-22T11:03:51.607Z,6.75
2023-03-22T11:06:25.996Z,7.00
2023-03-22T11:08:57.356Z,7.70
2023-03-22T11:11:27.193Z,7.15
2023-03-22T11:14:06.462Z,7.38
2023-03-22T11:16:44.425Z,7.40
2023-03-22T11:19:18.470Z,7.15
2023-03-22T11:21:45.829Z,7.82
2023-03-22T11:24:15.766Z,7.32
2023-03-22T11:26:45.037Z,7.45
2023-03-22T11:29:18.659Z,8.02
2023-03-22T11:31:59.229Z,7.95
2023-03-22T11:34:29.368Z,8.20
2023-03-22T11:37:00.452Z,8.48
2023-03-22T11:39:29.834Z,8.35
2023-03-22T11:42:00.266Z,7.47
2023-03-22T11:44:32.025Z,7.40
2023-03-22T11:47:01.223Z,6.85
2023-03-22T11:49:59.996Z,5.30
2023-03-22T11:52:28.065Z,6.13
2023-03-22T11:54:56.340Z,5.13
2023-03-22T11:57:26.606Z,5.05
2023-03-22T12:00:21.551Z,5.40
2023-03-22T12:05:27.365Z,5.32
2023-03-22T12:08:38.936Z,4.85
2023-03-22T12:11:11.178Z,4.63
2023-03-22T12:13:53.477Z,4.50
2023-03-22T12:16:28.479Z,4.72
2023-03-22T12:19:22.696Z,5.05
2023-03-22T12:21:51.675Z,4.82
2023-03-22T12:24:36.756Z,5.30
2023-03-22T12:27:27.374Z,4.47
2023-03-22T12:30:04.331Z,4.25
2023-03-22T12:32:38.814Z,4.22
2023-03-22T12:37:50.873Z,4.68
2023-03-22T12:40:26.250Z,4.35
2023-03-22T12:43:08.261Z,4.60
2023-03-22T12:45:42.756Z,4.18
2023-03-22T12:48:21.940Z,3.95
2023-03-22T12:50:56.096Z,5.00
2023-03-22T12:53:28.206Z,3.65
2023-03-22T12:55:56.319Z,3.83
2023-03-22T12:58:26.284Z,4.55
2023-03-22T13:00:58.745Z,4.32
2023-03-22T13:03:38.713Z,5.32
2023-03-22T13:06:27.373Z,4.00
2023-03-22T13:09:17.111Z,3.35
2023-03-22T13:11:49.831Z,4.00
2023-03-22T13:14:51.454Z,3.63
2023-03-22T13:17:24.890Z,3.10
2023-03-22T13:20:23.807Z,3.53
2023-03-22T13:22:53.210Z,2.85
2023-03-22T13:25:40.015Z,3.90
2023-03-22T13:28:28.300Z,2.83
2023-03-22T13:30:58.422Z,3.25
2023-03-22T13:33:29.880Z,3.20
2023-03-22T13:36:01.533Z,3.20
2023-03-22T13:38:42.853Z,2.95
2023-03-22T13:41:24.653Z,2.72
2023-03-22T13:43:54.815Z,2.55
2023-03-22T13:46:21.816Z,3.00
2023-03-22T13:48:49.317Z,3.13
2023-03-22T13:51:23.037Z,3.67
2023-03-22T13:54:16.597Z,3.08
2023-03-22T13:57:01.564Z,3.30
2023-03-22T14:02:00.696Z,2.88
2023-03-22T14:04:42.729Z,3.45
2023-03-22T14:07:40.717Z,4.32
2023-03-22T14:10:33.089Z,3.45
2023-03-22T14:13:06.488Z,6.63
2023-03-22T14:15:40.634Z,3.78
2023-03-22T14:18:31.821Z,3.63
2023-03-22T14:21:02.195Z,4.30
